Terminal Aerodrome Forecast
Issued by NWS

Current Version | Previous Version | Graphics & Text | Print | Product List | Glossary On
Versions: 1 2 3 4 5 6 7 8 9 10 11 12 13 14 15 16
000
FTUS41 KILN 251023 AAB
TAFLUK
TAF AMD
KLUK 251023Z 2510/2606 29012KT P6SM BKN040
     FM251200 26015G25KT P6SM OVC028
     FM251800 27014G22KT P6SM OVC040
     FM260000 28010KT P6SM BKN040=

USA.gov is the U.S. government's official web portal to all federal, state and local government web resources and services.